createdAt,value
2023-01-22T00:01:10.449Z,60.71
2023-01-22T00:03:39.691Z,61.34
2023-01-22T00:06:08.891Z,65.43
2023-01-22T00:08:37.158Z,67.16
2023-01-22T00:11:05.082Z,62.88
2023-01-22T00:13:32.905Z,57.89
2023-01-22T00:16:00.961Z,55.40
2023-01-22T00:18:28.836Z,56.30
2023-01-22T00:20:56.551Z,58.10
2023-01-22T00:23:25.093Z,59.19
2023-01-22T00:26:13.675Z,59.46
2023-01-22T00:28:45.271Z,61.02
2023-01-22T00:31:14.696Z,63.72
2023-01-22T00:33:43.068Z,67.12
2023-01-22T00:36:14.270Z,63.98
2023-01-22T00:38:42.972Z,59.49
2023-01-22T00:41:11.401Z,55.12
2023-01-22T00:43:40.597Z,54.73
2023-01-22T00:46:10.572Z,56.03
2023-01-22T00:48:38.960Z,56.80
2023-01-22T00:51:08.784Z,58.36
2023-01-22T00:53:37.711Z,58.47
2023-01-22T00:56:06.775Z,60.12
2023-01-22T00:58:34.724Z,60.94
2023-01-22T01:01:04.407Z,64.54
2023-01-22T01:03:34.126Z,66.53
2023-01-22T01:06:05.638Z,64.08
2023-01-22T01:08:39.921Z,60.17
2023-01-22T01:11:12.539Z,55.02
2023-01-22T01:13:43.263Z,54.32
2023-01-22T01:16:16.546Z,55.34
2023-01-22T01:18:46.976Z,57.81
2023-01-22T01:21:17.011Z,58.79
2023-01-22T01:23:45.462Z,59.40
2023-01-22T01:26:15.205Z,60.94
2023-01-22T01:28:44.125Z,64.44
2023-01-22T01:31:15.015Z,67.52
2023-01-22T01:33:43.234Z,64.06
2023-01-22T01:36:18.263Z,59.50
2023-01-22T01:38:48.195Z,56.49
2023-01-22T01:41:21.333Z,54.91
2023-01-22T01:44:24.837Z,56.81
2023-01-22T01:47:00.706Z,58.63
2023-01-22T01:49:32.777Z,61.23
2023-01-22T01:52:06.888Z,61.62
2023-01-22T01:54:34.678Z,65.24
2023-01-22T01:57:06.609Z,67.35
2023-01-22T01:59:35.193Z,62.05
2023-01-22T02:02:03.953Z,57.26
2023-01-22T02:04:31.792Z,55.54
2023-01-22T02:06:59.718Z,56.57
2023-01-22T02:09:27.616Z,58.04
2023-01-22T02:11:55.602Z,59.59
2023-01-22T02:14:28.364Z,60.96
2023-01-22T02:17:11.593Z,61.06
2023-01-22T02:19:40.082Z,66.17
2023-01-22T02:22:22.274Z,67.71
2023-01-22T02:24:50.339Z,63.91
2023-01-22T02:27:19.096Z,58.83
2023-01-22T02:29:47.684Z,54.37
2023-01-22T02:32:15.816Z,54.88
2023-01-22T02:34:43.751Z,55.31
2023-01-22T02:37:12.324Z,56.21
2023-01-22T02:39:40.205Z,58.26
2023-01-22T02:42:08.916Z,59.10
2023-01-22T02:44:37.060Z,59.26
2023-01-22T02:47:05.231Z,59.98
2023-01-22T02:49:33.345Z,60.80
2023-01-22T02:52:02.121Z,61.58
2023-01-22T02:54:30.972Z,66.03
2023-01-22T02:56:58.700Z,68.15
2023-01-22T02:59:26.631Z,63.32
2023-01-22T03:01:56.425Z,58.27
2023-01-22T03:04:24.655Z,54.70
2023-01-22T03:06:52.464Z,55.17
2023-01-22T03:09:20.408Z,56.38
2023-01-22T03:11:48.200Z,57.89
2023-01-22T03:14:41.207Z,59.68
2023-01-22T03:17:27.991Z,60.24
2023-01-22T03:20:15.030Z,60.68
2023-01-22T03:22:42.921Z,60.99
2023-01-22T03:25:10.932Z,64.79
2023-01-22T03:27:58.981Z,66.81
2023-01-22T03:30:27.501Z,60.90
2023-01-22T03:37:15.611Z,53.66
2023-01-22T03:39:45.687Z,55.29
2023-01-22T03:42:20.057Z,55.99
2023-01-22T03:44:48.119Z,57.48
2023-01-22T03:47:17.668Z,58.63
2023-01-22T03:49:45.428Z,59.09
2023-01-22T03:52:13.467Z,59.76
2023-01-22T03:54:41.583Z,60.19
2023-01-22T03:57:10.046Z,61.16
2023-01-22T03:59:39.630Z,65.48
2023-01-22T04:02:08.113Z,66.81
2023-01-22T04:04:39.435Z,60.80
2023-01-22T04:07:07.235Z,55.68
2023-01-22T04:09:34.934Z,54.46
2023-01-22T04:12:03.763Z,54.97
2023-01-22T04:14:32.306Z,55.75
2023-01-22T04:17:02.637Z,57.02
2023-01-22T04:19:52.527Z,58.17
2023-01-22T04:22:42.797Z,59.36
2023-01-22T04:25:12.698Z,60.71
2023-01-22T04:27:40.481Z,61.17
2023-01-22T04:30:08.939Z,61.56
2023-01-22T04:32:37.668Z,65.84
2023-01-22T04:35:16.921Z,66.63
2023-01-22T04:37:50.474Z,61.11
2023-01-22T04:40:18.757Z,55.48
2023-01-22T04:42:47.594Z,54.19
2023-01-22T04:45:15.981Z,55.10
2023-01-22T04:47:45.335Z,56.16
2023-01-22T04:50:19.083Z,57.82
2023-01-22T04:52:47.623Z,58.76
2023-01-22T04:55:16.923Z,59.35
2023-01-22T04:57:56.642Z,59.78
2023-01-22T05:00:25.202Z,60.32
2023-01-22T05:02:57.868Z,60.71
2023-01-22T05:05:26.482Z,61.25
2023-01-22T05:07:54.664Z,61.82
2023-01-22T05:10:23.177Z,65.33
2023-01-22T05:12:51.260Z,67.92
2023-01-22T05:15:24.531Z,62.06
2023-01-22T05:17:55.424Z,55.89
2023-01-22T05:20:23.254Z,54.19
2023-01-22T05:22:51.445Z,54.98
2023-01-22T05:25:23.500Z,55.86
2023-01-22T05:27:51.431Z,57.26
2023-01-22T05:30:49.979Z,57.88
2023-01-22T05:33:34.578Z,58.82
2023-01-22T05:36:04.113Z,60.00
2023-01-22T05:38:32.496Z,61.09
2023-01-22T05:41:00.512Z,61.95
2023-01-22T05:43:32.113Z,65.78
2023-01-22T05:46:04.316Z,67.49
2023-01-22T05:48:50.905Z,63.98
2023-01-22T05:51:23.144Z,61.65
2023-01-22T05:53:51.913Z,57.44
2023-01-22T05:56:19.780Z,53.03
2023-01-22T05:58:47.578Z,53.04
2023-01-22T06:01:15.610Z,54.26
2023-01-22T06:03:46.666Z,56.02
2023-01-22T06:06:16.542Z,56.41
2023-01-22T06:08:46.720Z,57.22
2023-01-22T06:11:16.793Z,58.21
2023-01-22T06:13:47.762Z,59.51
2023-01-22T06:16:17.971Z,59.77
2023-01-22T06:19:09.542Z,60.10
2023-01-22T06:21:46.562Z,60.82
2023-01-22T06:24:14.431Z,61.66
2023-01-22T06:26:43.315Z,65.34
2023-01-22T06:29:13.084Z,67.65
2023-01-22T06:31:41.319Z,62.88
2023-01-22T06:34:09.638Z,58.49
2023-01-22T06:36:37.492Z,53.48
2023-01-22T06:39:05.477Z,53.15
2023-01-22T06:41:38.684Z,54.81
2023-01-22T06:44:08.257Z,55.56
2023-01-22T06:46:36.044Z,56.15
2023-01-22T06:49:08.350Z,57.05
2023-01-22T06:51:36.531Z,58.16
2023-01-22T06:54:04.472Z,59.49
2023-01-22T06:56:32.922Z,60.63
2023-01-22T06:59:01.610Z,60.92
2023-01-22T07:01:30.150Z,61.54
2023-01-22T07:03:58.204Z,65.52
2023-01-22T07:06:25.953Z,67.93
2023-01-22T07:08:54.040Z,62.29
2023-01-22T07:11:21.866Z,56.54
2023-01-22T07:13:49.976Z,54.67
2023-01-22T07:16:17.844Z,55.82
2023-01-22T07:18:45.804Z,57.47
2023-01-22T07:21:13.699Z,58.35
2023-01-22T07:23:42.289Z,58.85
2023-01-22T07:26:10.444Z,59.88
2023-01-22T07:28:39.378Z,60.62
2023-01-22T07:31:11.476Z,61.33
2023-01-22T07:33:39.504Z,65.61
2023-01-22T07:36:09.919Z,67.87
2023-01-22T07:38:37.823Z,63.55
2023-01-22T07:41:16.923Z,59.73
2023-01-22T07:44:01.296Z,54.91
2023-01-22T07:46:29.531Z,54.20
2023-01-22T07:48:57.309Z,55.91
2023-01-22T07:51:25.102Z,56.07
2023-01-22T07:53:53.164Z,57.16
2023-01-22T07:56:21.046Z,58.62
2023-01-22T07:58:48.906Z,59.45
2023-01-22T08:01:17.657Z,59.44
2023-01-22T08:03:45.416Z,60.40
2023-01-22T08:06:17.423Z,61.15
2023-01-22T08:08:45.207Z,65.32
2023-01-22T08:11:13.657Z,67.50
2023-01-22T08:13:41.639Z,63.81
2023-01-22T08:16:09.743Z,57.72
2023-01-22T08:18:38.319Z,53.50
2023-01-22T08:21:06.351Z,53.89
2023-01-22T08:23:34.585Z,55.16
2023-01-22T08:26:06.535Z,56.68
2023-01-22T08:28:34.536Z,57.79
2023-01-22T08:31:03.418Z,59.76
2023-01-22T08:33:33.591Z,60.30
2023-01-22T08:36:01.647Z,60.22
2023-01-22T08:38:29.813Z,60.42
2023-01-22T08:40:57.796Z,62.57
2023-01-22T08:43:25.855Z,67.68
2023-01-22T08:45:53.798Z,65.48
2023-01-22T08:48:21.797Z,58.23
2023-01-22T08:50:49.635Z,53.71
2023-01-22T08:53:17.535Z,53.93
2023-01-22T08:55:51.684Z,55.26
2023-01-22T08:58:22.358Z,56.45
2023-01-22T14:02:36.280Z,73.22
2023-01-22T14:05:05.214Z,75.62
2023-01-22T14:07:36.524Z,71.85
2023-01-22T14:10:33.755Z,67.35
2023-01-22T14:13:05.005Z,61.91
2023-01-22T14:15:33.757Z,57.78
2023-01-22T14:18:10.178Z,56.34
2023-01-22T14:20:40.111Z,57.88
2023-01-22T14:23:08.081Z,59.28
2023-01-22T14:25:40.818Z,59.71
2023-01-22T14:28:09.188Z,60.82
2023-01-22T14:30:37.260Z,65.26
2023-01-22T14:33:05.886Z,67.47
2023-01-22T14:35:33.895Z,63.44
2023-01-22T14:38:01.782Z,61.24
2023-01-22T14:40:30.591Z,57.71
2023-01-22T14:43:02.195Z,55.52
2023-01-22T14:45:30.382Z,56.68
2023-01-22T14:47:58.294Z,58.77
2023-01-22T14:50:26.390Z,61.31
2023-01-22T14:52:54.449Z,64.21
2023-01-22T14:55:22.615Z,65.94
2023-01-22T14:57:50.640Z,63.35
2023-01-22T15:00:19.597Z,59.66
2023-01-22T15:02:47.969Z,57.83
2023-01-22T15:05:16.370Z,57.74
2023-01-22T15:07:44.256Z,59.27
2023-01-22T15:10:12.400Z,64.35
2023-01-22T15:12:40.249Z,64.31
2023-01-22T15:15:09.113Z,61.20
2023-01-22T15:17:37.338Z,57.61
2023-01-22T15:20:05.892Z,56.45
2023-01-22T15:22:34.388Z,58.56
2023-01-22T15:25:02.480Z,59.93
2023-01-22T15:27:30.273Z,61.04
2023-01-22T15:29:58.173Z,64.07
2023-01-22T15:32:26.090Z,66.27
2023-01-22T15:34:54.081Z,62.82
2023-01-22T15:37:23.803Z,58.47
2023-01-22T15:39:51.945Z,56.38
2023-01-22T15:42:19.787Z,57.86
2023-01-22T15:44:47.684Z,59.57
2023-01-22T15:47:15.677Z,62.95
2023-01-22T15:49:43.500Z,65.71
2023-01-22T15:52:11.489Z,63.99
2023-01-22T15:54:42.026Z,59.37
2023-01-22T15:57:09.850Z,55.68
2023-01-22T15:59:38.872Z,57.13
2023-01-22T16:02:09.514Z,59.33
2023-01-22T16:04:37.461Z,60.84
2023-01-22T16:07:05.251Z,64.41
2023-01-22T16:09:33.858Z,65.68
2023-01-22T16:12:01.762Z,63.17
2023-01-22T16:14:29.618Z,60.16
2023-01-22T16:16:57.503Z,56.90
2023-01-22T16:19:25.566Z,56.29
2023-01-22T16:21:53.592Z,58.26
2023-01-22T16:24:21.374Z,59.49
2023-01-22T16:26:49.226Z,61.71
2023-01-22T16:29:17.181Z,64.79
2023-01-22T16:31:45.544Z,64.83
2023-01-22T16:34:15.539Z,61.93
2023-01-22T16:36:44.122Z,58.19
2023-01-22T16:39:23.893Z,57.38
2023-01-22T16:41:52.051Z,58.75
2023-01-22T16:44:26.319Z,60.60
2023-01-22T16:46:59.898Z,64.48
2023-01-22T16:49:33.278Z,65.86
2023-01-22T16:52:16.752Z,62.70
2023-01-22T16:54:50.241Z,61.41
2023-01-22T16:57:19.431Z,57.69
2023-01-22T16:59:47.368Z,56.66
2023-01-22T17:02:16.158Z,57.71
2023-01-22T17:04:44.903Z,59.84
2023-01-22T17:07:23.945Z,61.00
2023-01-22T17:10:00.859Z,64.57
2023-01-22T17:12:29.261Z,66.18
2023-01-22T17:14:57.805Z,63.51
2023-01-22T17:17:25.870Z,60.63
2023-01-22T17:19:53.762Z,56.94
2023-01-22T17:22:22.395Z,54.89
2023-01-22T17:24:50.285Z,56.54
2023-01-22T17:27:19.172Z,58.23
2023-01-22T17:29:47.183Z,59.49
2023-01-22T17:32:15.188Z,60.20
2023-01-22T17:34:42.990Z,61.47
2023-01-22T17:37:11.275Z,66.47
2023-01-22T17:39:39.630Z,66.74
2023-01-22T17:42:07.520Z,63.13
2023-01-22T17:44:35.403Z,60.02
2023-01-22T17:47:03.656Z,55.31
2023-01-22T17:49:33.207Z,55.09
2023-01-22T17:52:01.136Z,56.75
2023-01-22T17:54:28.972Z,57.65
2023-01-22T17:56:57.331Z,58.78
2023-01-22T17:59:25.161Z,59.67
2023-01-22T18:01:52.939Z,60.87
2023-01-22T18:04:20.963Z,61.52
2023-01-22T18:06:49.959Z,64.77
2023-01-22T18:09:18.410Z,68.22
2023-01-22T18:11:46.680Z,63.72
2023-01-22T18:14:21.813Z,58.16
2023-01-22T18:16:50.591Z,55.07
2023-01-22T18:19:18.956Z,56.72
2023-01-22T18:21:46.989Z,57.49
2023-01-22T18:24:14.903Z,58.09
2023-01-22T18:26:42.853Z,59.52
2023-01-22T18:29:12.156Z,60.00
2023-01-22T18:31:40.205Z,60.94
2023-01-22T18:34:08.848Z,65.31
2023-01-22T18:36:38.761Z,67.36
2023-01-22T18:39:26.004Z,62.24
2023-01-22T18:41:54.355Z,56.34
2023-01-22T18:44:27.628Z,55.12
2023-01-22T18:46:58.778Z,56.63
2023-01-22T18:49:28.147Z,57.99
2023-01-22T18:52:00.830Z,58.45
2023-01-22T18:54:29.217Z,59.75
2023-01-22T18:56:57.297Z,60.30
2023-01-22T18:59:25.393Z,61.29
2023-01-22T19:01:53.236Z,65.14
2023-01-22T19:04:22.088Z,67.65
2023-01-22T19:06:53.006Z,64.10
2023-01-22T19:09:21.655Z,60.08
2023-01-22T19:11:52.414Z,56.29
2023-01-22T19:14:21.187Z,55.90
2023-01-22T19:16:51.310Z,56.38
2023-01-22T19:19:20.634Z,57.70
2023-01-22T19:21:52.670Z,59.14
2023-01-22T19:24:25.018Z,61.63
2023-01-22T19:26:54.811Z,64.43
2023-01-22T19:29:24.117Z,66.27
2023-01-22T19:31:53.904Z,62.57
2023-01-22T19:34:23.993Z,57.71
2023-01-22T19:36:54.659Z,55.50
2023-01-22T19:39:25.542Z,56.00
2023-01-22T19:41:54.419Z,57.46
2023-01-22T19:44:25.511Z,58.50
2023-01-22T19:46:55.888Z,59.72
2023-01-22T19:49:25.311Z,61.34
2023-01-22T19:51:54.188Z,65.68
2023-01-22T19:54:22.557Z,67.11
2023-01-22T19:56:50.692Z,63.41
2023-01-22T19:59:20.542Z,58.23
2023-01-22T20:01:50.051Z,54.99
2023-01-22T20:04:25.412Z,55.29
2023-01-22T20:07:04.424Z,56.85
2023-01-22T20:09:34.031Z,57.69
2023-01-22T20:12:02.720Z,58.95
2023-01-22T20:14:33.075Z,61.77
2023-01-22T20:17:02.389Z,66.41
2023-01-22T20:19:30.951Z,66.83
2023-01-22T20:22:00.475Z,62.50
2023-01-22T20:24:28.376Z,58.28
2023-01-22T20:26:58.048Z,55.67
2023-01-22T20:29:26.353Z,57.08
2023-01-22T20:31:54.566Z,58.16
2023-01-22T20:34:22.675Z,59.25
2023-01-22T20:36:50.799Z,60.28
2023-01-22T20:39:19.847Z,62.64
2023-01-22T20:41:48.396Z,67.30
2023-01-22T20:44:16.954Z,64.73
2023-01-22T20:46:44.863Z,60.81
2023-01-22T20:49:13.497Z,57.26
2023-01-22T20:51:42.721Z,55.28
2023-01-22T20:54:10.952Z,56.12
2023-01-22T20:56:38.891Z,57.74
2023-01-22T20:59:11.030Z,58.53
2023-01-22T21:01:39.785Z,59.17
2023-01-22T21:04:08.135Z,60.72
2023-01-22T21:06:39.487Z,64.25
2023-01-22T21:09:08.819Z,66.81
2023-01-22T21:11:38.785Z,62.17
2023-01-22T21:14:07.689Z,56.98
2023-01-22T21:16:38.460Z,55.35
2023-01-22T21:19:15.823Z,56.12
2023-01-22T21:21:44.270Z,57.52
2023-01-22T21:24:12.928Z,59.38
2023-01-22T21:26:41.418Z,60.53
2023-01-22T21:29:14.272Z,61.04
2023-01-22T21:31:42.962Z,64.84
2023-01-22T21:34:11.785Z,66.56
2023-01-22T21:36:42.658Z,61.60
2023-01-22T21:39:15.612Z,55.58
2023-01-22T21:41:43.996Z,53.84
2023-01-22T21:44:32.466Z,55.59
2023-01-22T21:47:01.084Z,57.40
2023-01-22T21:49:29.216Z,58.14
2023-01-22T21:52:05.948Z,59.55
2023-01-22T21:54:36.761Z,60.50
2023-01-22T21:57:05.421Z,60.87
2023-01-22T21:59:33.225Z,64.19
2023-01-22T22:02:01.027Z,68.18
2023-01-22T22:04:28.969Z,64.10
2023-01-22T22:06:57.132Z,61.19
2023-01-22T22:09:27.061Z,55.37
2023-01-22T22:11:59.661Z,53.10
2023-01-22T22:14:27.909Z,53.64
2023-01-22T22:16:56.180Z,55.80
2023-01-22T22:19:24.546Z,57.21
2023-01-22T22:21:54.556Z,58.46
2023-01-22T22:24:22.387Z,59.08
2023-01-22T22:26:50.455Z,60.43
2023-01-22T22:29:18.511Z,61.52
2023-01-22T22:31:46.520Z,64.93
2023-01-22T22:34:14.348Z,66.78
2023-01-22T22:36:42.129Z,61.68
2023-01-22T22:39:10.026Z,56.41
2023-01-22T22:41:39.268Z,55.07
2023-01-22T22:44:07.769Z,55.96
2023-01-22T22:46:38.676Z,56.67
2023-01-22T22:49:06.960Z,57.56
2023-01-22T22:51:37.635Z,59.27
2023-01-22T22:54:10.076Z,59.93
2023-01-22T22:56:37.895Z,61.23
2023-01-22T22:59:05.779Z,64.38
2023-01-22T23:01:35.542Z,67.30
2023-01-22T23:04:07.622Z,63.04
2023-01-22T23:06:36.517Z,56.70
2023-01-22T23:09:19.742Z,55.23
2023-01-22T23:11:51.736Z,55.81
2023-01-22T23:14:19.698Z,56.96
2023-01-22T23:16:48.376Z,58.04
2023-01-22T23:19:25.720Z,59.68
2023-01-22T23:21:55.679Z,59.86
2023-01-22T23:24:23.984Z,60.61
2023-01-22T23:26:52.534Z,61.12
2023-01-22T23:29:24.073Z,64.91
2023-01-22T23:31:51.993Z,68.24
2023-01-22T23:34:21.715Z,63.41
2023-01-22T23:36:50.372Z,60.24
2023-01-22T23:39:20.209Z,55.25
2023-01-22T23:41:48.258Z,54.47
2023-01-22T23:44:16.327Z,55.08
2023-01-22T23:46:44.860Z,56.60
2023-01-22T23:49:12.743Z,57.73
2023-01-22T23:51:42.264Z,58.62
2023-01-22T23:54:10.194Z,59.26
2023-01-22T23:56:37.912Z,60.13
2023-01-22T23:59:05.683Z,61.36
